Waialua, Hawaii
Current Conditions -  °F | °C
As of 8:58 PM on Thursday 30 Oct 2014 (Local Time) from PHHI Reporting Station
Broken Clouds Broken Clouds  
Wind Chill: 24°   Ceiling: 3400
Heat Index: 24°   Visibility: 10mi
Dew Point: 18°   Wind: 5mph
Humidity: 70%   Direction: 130°SE
Pressure: 30.08"   Gusts: NA
Location:  21.57°N, 158.12°W
Report Text: PHHI 310658Z AUTO 13004KT 10SM BKN034 24/18 A3008 RMK AO2 SLP176 T02370180 $
Loading
Personal Weather Stations






























Interactive Weather Map
Tropical Storm Tracking
New forecast layout! Learn more

10-Day Weather Forecast

Advertisements
Track Severe Weather on mobile